Time;durP1;ratioP1;P1;durP2;ratioP2;P2;SDS_P1;SDS_P2;PMS_P1;PMS_P2;Temp;Humidity;BMP_temperature;BMP_pressure;BME280_temperature;BME280_humidity;BME280_pressure;Samples;Min_cycle;Max_cycle;Signal;HPM_P1;HPM_P2
2022/01/25 00:10:13;;;;;;;32.70;18.83;;;;;;;;;;5094066;28;20169;-67
2022/01/25 00:24:13;;;;;;;31.52;18.52;;;;;;;;;;5093582;28;20181;-67
2022/01/25 00:28:50;;;;;;;41.78;20.42;;;;;;;;;;5093873;28;20292;-67
2022/01/25 00:31:17;;;;;;;40.20;21.30;;;;;;;;;;5093442;28;20212;-67
2022/01/25 00:33:54;;;;;;;33.28;18.83;;;;;;;;;;5093784;28;20596;-67
2022/01/25 00:36:24;;;;;;;34.17;19.55;;;;;;;;;;5092404;28;20534;-67
2022/01/25 00:38:50;;;;;;;30.80;17.70;;;;;;;;;;5094601;28;20206;-67
2022/01/25 00:41:17;;;;;;;35.30;18.05;;;;;;;;;;5097836;28;20163;-67
2022/01/25 00:43:43;;;;;;;31.90;18.48;;;;;;;;;;5097548;28;20508;-67
2022/01/25 00:46:11;;;;;;;28.80;18.02;;;;;;;;;;5097533;28;20184;-67
2022/01/25 00:56:23;;;;;;;28.05;17.35;;;;;;;;;;5097584;28;20175;-67
2022/01/25 00:58:49;;;;;;;25.90;17.10;;;;;;;;;;5097138;28;20673;-67
2022/01/25 01:01:16;;;;;;;27.02;17.15;;;;;;;;;;5097219;28;20198;-67
2022/01/25 01:03:42;;;;;;;28.15;16.05;;;;;;;;;;5095834;28;20167;-67
2022/01/25 01:06:08;;;;;;;26.52;16.92;;;;;;;;;;5097126;28;20178;-67
2022/01/25 01:08:34;;;;;;;33.37;19.37;;;;;;;;;;5097053;28;20174;-67
2022/01/25 01:11:06;;;;;;;28.33;17.77;;;;;;;;;;5097019;28;20429;-67
2022/01/25 01:16:38;;;;;;;25.73;17.73;;;;;;;;;;5097245;28;20254;-67
2022/01/25 01:35:36;;;;;;;30.70;18.20;;;;;;;;;;5096843;28;20163;-67
2022/01/25 01:46:00;;;;;;;26.03;16.57;;;;;;;;;;5096441;28;20160;-67
2022/01/25 01:48:29;;;;;;;28.83;17.20;;;;;;;;;;5096408;28;20873;-67
2022/01/25 01:51:01;;;;;;;30.02;18.25;;;;;;;;;;5095722;28;20195;-67
2022/01/25 01:53:27;;;;;;;27.23;18.55;;;;;;;;;;5096537;28;20246;-67
2022/01/25 01:55:53;;;;;;;31.67;19.00;;;;;;;;;;5096210;28;20222;-67
2022/01/25 01:58:19;;;;;;;27.25;17.48;;;;;;;;;;5096093;28;21019;-67
2022/01/25 02:00:46;;;;;;;30.10;17.97;;;;;;;;;;5096315;28;20195;-67
2022/01/25 02:03:13;;;;;;;24.95;17.33;;;;;;;;;;5096081;28;20444;-67
2022/01/25 02:05:39;;;;;;;32.75;17.13;;;;;;;;;;5095954;28;20163;-67
2022/01/25 02:08:05;;;;;;;28.85;17.85;;;;;;;;;;5096243;28;20178;-67
2022/01/25 02:10:31;;;;;;;36.95;17.70;;;;;;;;;;5095975;28;20167;-67
2022/01/25 02:12:58;;;;;;;22.20;15.65;;;;;;;;;;5095871;28;20203;-67
2022/01/25 02:15:27;;;;;;;27.23;17.23;;;;;;;;;;5095803;28;20155;-67
2022/01/25 02:23:21;;;;;;;28.52;15.82;;;;;;;;;;5095924;28;20174;-67
2022/01/25 02:25:47;;;;;;;25.40;15.15;;;;;;;;;;5095707;28;20193;-67
2022/01/25 02:28:14;;;;;;;21.52;15.35;;;;;;;;;;5095494;28;20630;-67
2022/01/25 02:30:40;;;;;;;20.88;15.75;;;;;;;;;;5095541;28;20163;-66
2022/01/25 02:33:06;;;;;;;21.10;15.00;;;;;;;;;;5095467;28;20228;-67
2022/01/25 02:35:32;;;;;;;18.30;14.82;;;;;;;;;;5095363;28;20623;-67
2022/01/25 02:37:58;;;;;;;21.25;14.65;;;;;;;;;;5095340;28;20214;-67
2022/01/25 02:40:24;;;;;;;25.48;16.55;;;;;;;;;;5095335;28;20216;-66
2022/01/25 02:42:51;;;;;;;22.23;14.68;;;;;;;;;;5095245;28;20175;-67
2022/01/25 02:45:17;;;;;;;21.58;14.25;;;;;;;;;;5095122;28;20159;-67
2022/01/25 02:50:29;;;;;;;20.52;14.75;;;;;;;;;;5095338;28;20172;-67
2022/01/25 02:52:55;;;;;;;22.02;14.65;;;;;;;;;;5095159;28;20167;-67
2022/01/25 02:55:21;;;;;;;21.85;15.55;;;;;;;;;;5093719;28;20171;-67
2022/01/25 02:57:48;;;;;;;22.52;15.07;;;;;;;;;;5095181;28;20221;-67
2022/01/25 03:00:14;;;;;;;21.23;14.60;;;;;;;;;;5095029;28;20239;-67
2022/01/25 03:02:40;;;;;;;22.05;14.82;;;;;;;;;;5094953;28;20170;-67
2022/01/25 03:05:07;;;;;;;24.27;15.85;;;;;;;;;;5094905;28;20201;-67
2022/01/25 03:07:34;;;;;;;23.50;15.70;;;;;;;;;;5093462;28;20175;-67
2022/01/25 03:10:00;;;;;;;27.83;14.52;;;;;;;;;;5094661;28;20171;-67
2022/01/25 03:12:40;;;;;;;20.75;14.93;;;;;;;;;;5093336;28;20615;-67
2022/01/25 03:17:48;;;;;;;21.02;13.82;;;;;;;;;;5094544;28;20221;-67
2022/01/25 03:20:21;;;;;;;18.35;14.25;;;;;;;;;;5094551;28;20187;-67
2022/01/25 03:25:19;;;;;;;26.90;14.20;;;;;;;;;;5094837;28;20167;-67
2022/01/25 03:27:45;;;;;;;20.63;14.93;;;;;;;;;;5094429;28;20171;-67
2022/01/25 03:30:11;;;;;;;25.00;14.90;;;;;;;;;;5093079;28;20178;-67
2022/01/25 03:32:38;;;;;;;29.73;15.15;;;;;;;;;;5094300;28;20422;-67
2022/01/25 03:35:04;;;;;;;20.25;15.00;;;;;;;;;;5094308;28;20167;-67
2022/01/25 03:37:30;;;;;;;24.20;15.52;;;;;;;;;;5094141;28;20206;-67
2022/01/25 03:39:56;;;;;;;55.67;29.70;;;;;;;;;;5094175;28;20304;-67
2022/01/25 03:42:23;;;;;;;57.47;30.93;;;;;;;;;;5094351;28;20483;-67
2022/01/25 03:44:49;;;;;;;38.17;23.52;;;;;;;;;;5094199;28;20385;-67
2022/01/25 03:47:19;;;;;;;40.28;23.65;;;;;;;;;;5093977;28;20630;-66
2022/01/25 03:49:52;;;;;;;31.45;20.20;;;;;;;;;;5094304;28;20181;-67
2022/01/25 03:52:35;;;;;;;26.38;16.67;;;;;;;;;;5093963;28;20155;-67
2022/01/25 03:55:01;;;;;;;23.10;16.25;;;;;;;;;;5094015;28;20175;-67
2022/01/25 03:57:27;;;;;;;27.17;16.48;;;;;;;;;;5093780;28;20225;-67
2022/01/25 03:59:54;;;;;;;25.40;16.45;;;;;;;;;;5094210;28;20574;-67
2022/01/25 04:02:19;;;;;;;26.27;17.60;;;;;;;;;;5093887;28;20178;-67
2022/01/25 04:04:47;;;;;;;31.15;18.00;;;;;;;;;;5093881;28;20175;-67
2022/01/25 04:07:15;;;;;;;25.77;16.80;;;;;;;;;;5093848;28;20208;-66
2022/01/25 04:09:41;;;;;;;26.42;17.65;;;;;;;;;;5093680;28;20681;-67
2022/01/25 04:12:07;;;;;;;24.60;16.73;;;;;;;;;;5093767;28;20205;-67
2022/01/25 04:14:33;;;;;;;23.70;16.35;;;;;;;;;;5093349;28;21001;-67
2022/01/25 04:17:06;;;;;;;25.98;16.83;;;;;;;;;;5093537;28;20167;-67
2022/01/25 04:24:44;;;;;;;25.73;17.23;;;;;;;;;;5093903;28;20171;-67
2022/01/25 04:27:11;;;;;;;26.23;17.35;;;;;;;;;;5093570;28;20166;-67
2022/01/25 04:29:37;;;;;;;24.30;17.77;;;;;;;;;;5093532;28;20245;-67
2022/01/25 04:32:06;;;;;;;27.53;17.30;;;;;;;;;;5093507;28;20248;-67
2022/01/25 04:50:59;;;;;;;24.00;15.25;;;;;;;;;;5093627;28;20637;-67
2022/01/25 04:53:52;;;;;;;24.00;15.65;;;;;;;;;;5093140;28;20189;-67
2022/01/25 04:56:31;;;;;;;24.08;16.88;;;;;;;;;;5093151;28;20179;-67
2022/01/25 04:59:09;;;;;;;26.52;17.23;;;;;;;;;;5093240;28;20236;-67
2022/01/25 05:01:37;;;;;;;26.25;17.90;;;;;;;;;;5093392;28;20202;-67
2022/01/25 05:04:08;;;;;;;28.98;18.00;;;;;;;;;;5093462;28;20233;-67
2022/01/25 05:06:34;;;;;;;27.55;18.30;;;;;;;;;;5093445;28;20168;-67
2022/01/25 05:09:12;;;;;;;30.08;17.95;;;;;;;;;;5093409;28;20209;-67
2022/01/25 05:11:44;;;;;;;22.90;15.63;;;;;;;;;;5093192;28;20159;-67
2022/01/25 05:14:30;;;;;;;26.15;17.48;;;;;;;;;;5093128;28;20159;-67
2022/01/25 05:17:00;;;;;;;25.65;17.05;;;;;;;;;;5093017;28;20175;-67
2022/01/25 05:24:30;;;;;;;26.40;16.48;;;;;;;;;;5093404;28;20225;-67
2022/01/25 05:26:56;;;;;;;24.55;16.52;;;;;;;;;;5095786;28;20197;-67
2022/01/25 05:29:22;;;;;;;21.35;16.25;;;;;;;;;;5096794;28;20684;-67
2022/01/25 05:31:48;;;;;;;26.40;17.23;;;;;;;;;;5097590;28;20179;-67
2022/01/25 05:34:14;;;;;;;26.70;16.70;;;;;;;;;;5096949;28;20409;-67
2022/01/25 05:36:42;;;;;;;24.37;16.50;;;;;;;;;;5097667;28;20413;-66
2022/01/25 05:39:13;;;;;;;27.50;17.15;;;;;;;;;;5095832;28;20473;-67
2022/01/25 05:41:40;;;;;;;40.35;21.13;;;;;;;;;;5096717;28;20182;-68
2022/01/25 05:49:10;;;;;;;45.00;23.50;;;;;;;;;;5096534;28;20179;-67
2022/01/25 05:51:36;;;;;;;39.10;21.02;;;;;;;;;;5095032;28;20417;-67
2022/01/25 05:54:02;;;;;;;42.70;22.80;;;;;;;;;;5096235;28;20178;-67
2022/01/25 05:56:28;;;;;;;41.47;22.70;;;;;;;;;;5094900;28;20424;-67
2022/01/25 05:58:54;;;;;;;33.73;20.80;;;;;;;;;;5096096;28;20203;-67
2022/01/25 06:01:21;;;;;;;28.75;18.15;;;;;;;;;;5096063;28;20403;-67
2022/01/25 06:03:47;;;;;;;30.17;17.83;;;;;;;;;;5094704;28;20631;-66
2022/01/25 06:06:13;;;;;;;20.25;14.80;;;;;;;;;;5095940;28;20575;-67
2022/01/25 06:08:39;;;;;;;27.92;18.45;;;;;;;;;;5095993;28;20175;-67
2022/01/25 06:11:07;;;;;;;28.58;18.50;;;;;;;;;;5095840;28;20163;-67
2022/01/25 06:13:33;;;;;;;24.60;18.45;;;;;;;;;;5096123;28;20225;-67
2022/01/25 06:15:59;;;;;;;34.00;20.70;;;;;;;;;;5096332;28;20171;-67
2022/01/25 06:18:25;;;;;;;29.03;18.57;;;;;;;;;;5095398;28;20840;-67
2022/01/25 06:20:51;;;;;;;26.20;18.53;;;;;;;;;;5095643;28;20436;-68
2022/01/25 06:23:17;;;;;;;40.77;26.13;;;;;;;;;;5095730;28;20410;-67
2022/01/25 06:25:43;;;;;;;32.40;20.27;;;;;;;;;;5095611;28;20767;-68
2022/01/25 06:28:09;;;;;;;33.28;19.80;;;;;;;;;;5094146;28;20179;-67
2022/01/25 06:30:35;;;;;;;26.60;18.88;;;;;;;;;;5095489;28;20567;-67
2022/01/25 06:33:01;;;;;;;27.98;19.20;;;;;;;;;;5095455;28;20167;-70
2022/01/25 06:35:29;;;;;;;30.38;18.90;;;;;;;;;;5095641;28;20163;-67
2022/01/25 06:37:55;;;;;;;27.08;18.27;;;;;;;;;;5093764;28;20622;-67
2022/01/25 06:40:23;;;;;;;28.67;18.38;;;;;;;;;;5095504;28;20173;-68
2022/01/25 06:42:49;;;;;;;32.45;20.02;;;;;;;;;;5095202;28;20164;-66
2022/01/25 06:45:18;;;;;;;32.30;19.85;;;;;;;;;;5095458;28;20537;-67
2022/01/25 06:47:45;;;;;;;28.88;18.88;;;;;;;;;;5095119;28;20220;-66
2022/01/25 06:50:12;;;;;;;27.75;17.23;;;;;;;;;;5095321;28;20528;-67
2022/01/25 06:52:40;;;;;;;25.13;16.85;;;;;;;;;;5095154;28;20254;-67
2022/01/25 06:55:07;;;;;;;26.33;17.35;;;;;;;;;;5095337;28;20503;-68
2022/01/25 06:57:33;;;;;;;20.80;15.68;;;;;;;;;;5094874;28;20209;-68
2022/01/25 06:59:59;;;;;;;28.90;16.52;;;;;;;;;;5095007;28;20171;-68
2022/01/25 07:02:25;;;;;;;36.23;17.80;;;;;;;;;;5094860;28;20598;-68
2022/01/25 07:04:51;;;;;;;53.88;24.73;;;;;;;;;;5094845;28;20405;-67
2022/01/25 07:07:17;;;;;;;35.00;20.30;;;;;;;;;;5094846;28;20228;-67
2022/01/25 07:09:43;;;;;;;47.90;23.07;;;;;;;;;;5094735;28;21066;-67
2022/01/25 07:12:09;;;;;;;54.73;26.10;;;;;;;;;;5094707;28;20408;-67
2022/01/25 07:14:35;;;;;;;38.20;20.55;;;;;;;;;;5094703;28;20446;-68
2022/01/25 07:17:01;;;;;;;38.45;18.48;;;;;;;;;;5094524;28;20557;-68
2022/01/25 07:19:27;;;;;;;28.48;16.23;;;;;;;;;;5094415;28;20254;-67
2022/01/25 07:21:53;;;;;;;23.42;16.33;;;;;;;;;;5094360;28;20204;-67
2022/01/25 07:24:19;;;;;;;26.88;16.25;;;;;;;;;;5094394;28;20178;-67
2022/01/25 07:26:47;;;;;;;27.60;16.80;;;;;;;;;;5094311;28;20164;-66
2022/01/25 07:29:13;;;;;;;24.17;15.40;;;;;;;;;;5094260;28;20399;-66
2022/01/25 07:31:39;;;;;;;26.00;16.92;;;;;;;;;;5094062;28;20220;-66
2022/01/25 07:34:05;;;;;;;29.00;15.20;;;;;;;;;;5094123;28;20170;-67
2022/01/25 07:36:31;;;;;;;24.77;16.23;;;;;;;;;;5094175;28;20580;-67
2022/01/25 07:38:56;;;;;;;26.50;15.90;;;;;;;;;;5094071;28;20468;-66
2022/01/25 07:41:23;;;;;;;24.60;16.00;;;;;;;;;;5094068;28;20401;-66
2022/01/25 07:43:49;;;;;;;26.20;14.55;;;;;;;;;;5094043;28;20478;-66
2022/01/25 07:46:16;;;;;;;22.20;14.20;;;;;;;;;;5094021;28;20638;-67
2022/01/25 07:48:42;;;;;;;23.58;15.40;;;;;;;;;;5093691;28;20547;-67
2022/01/25 07:51:08;;;;;;;23.27;14.70;;;;;;;;;;5094121;28;20171;-67
2022/01/25 07:53:37;;;;;;;21.92;16.02;;;;;;;;;;5093958;28;20401;-67
2022/01/25 07:56:03;;;;;;;21.95;16.02;;;;;;;;;;5094225;28;20171;-67
2022/01/25 07:58:29;;;;;;;23.98;15.70;;;;;;;;;;5093777;28;20207;-66
2022/01/25 08:00:55;;;;;;;29.07;17.93;;;;;;;;;;5093845;28;20174;-66
2022/01/25 08:03:22;;;;;;;34.58;19.50;;;;;;;;;;5093772;28;20409;-67
2022/01/25 08:05:50;;;;;;;29.88;17.80;;;;;;;;;;5093866;28;20232;-66
2022/01/25 08:08:17;;;;;;;30.63;19.90;;;;;;;;;;5093795;28;20477;-67
2022/01/25 08:10:43;;;;;;;32.08;21.73;;;;;;;;;;5093690;28;20163;-66
2022/01/25 08:13:09;;;;;;;30.50;19.70;;;;;;;;;;5093704;28;20196;-67
2022/01/25 08:15:35;;;;;;;30.02;20.48;;;;;;;;;;5093944;28;20171;-67
2022/01/25 08:18:01;;;;;;;42.25;21.80;;;;;;;;;;5093276;28;20266;-67
2022/01/25 08:20:28;;;;;;;29.05;19.25;;;;;;;;;;5093878;28;20691;-67
2022/01/25 08:22:54;;;;;;;31.58;20.23;;;;;;;;;;5093608;28;20178;-67
2022/01/25 08:25:20;;;;;;;29.80;18.95;;;;;;;;;;5093648;28;20261;-67
2022/01/25 08:27:47;;;;;;;27.30;18.52;;;;;;;;;;5093568;28;20611;-68
2022/01/25 08:30:13;;;;;;;27.38;18.77;;;;;;;;;;5093565;28;20254;-67
2022/01/25 08:32:39;;;;;;;24.35;19.10;;;;;;;;;;5093795;28;20229;-67
2022/01/25 08:35:05;;;;;;;30.20;19.97;;;;;;;;;;5093450;28;20174;-68
2022/01/25 08:37:31;;;;;;;30.48;19.83;;;;;;;;;;5093399;28;20804;-67
2022/01/25 08:39:57;;;;;;;29.50;20.50;;;;;;;;;;5093422;28;20167;-66
2022/01/25 08:42:23;;;;;;;35.65;20.85;;;;;;;;;;5093442;28;20163;-66
2022/01/25 08:44:49;;;;;;;30.38;20.92;;;;;;;;;;5093674;28;20248;-66
2022/01/25 08:47:15;;;;;;;33.90;21.40;;;;;;;;;;5093312;28;20205;-66
2022/01/25 08:49:42;;;;;;;31.17;21.48;;;;;;;;;;5093253;28;20982;-66
2022/01/25 08:52:08;;;;;;;29.60;21.40;;;;;;;;;;5093138;28;20262;-66
2022/01/25 08:54:34;;;;;;;30.05;22.40;;;;;;;;;;5093316;28;20244;-66
2022/01/25 08:57:01;;;;;;;39.80;23.25;;;;;;;;;;5093201;28;20178;-66
2022/01/25 08:59:28;;;;;;;33.60;21.92;;;;;;;;;;5094074;28;20175;-66
2022/01/25 09:01:53;;;;;;;31.05;22.65;;;;;;;;;;5097524;28;20167;-66
2022/01/25 09:04:19;;;;;;;29.70;21.30;;;;;;;;;;5097218;28;20224;-67
2022/01/25 09:06:45;;;;;;;31.87;22.73;;;;;;;;;;5097185;28;20432;-68
2022/01/25 09:09:11;;;;;;;33.40;21.70;;;;;;;;;;5097407;28;20424;-66
2022/01/25 09:11:39;;;;;;;28.15;20.55;;;;;;;;;;5097038;28;20167;-66
2022/01/25 09:14:05;;;;;;;30.88;22.20;;;;;;;;;;5097223;28;20202;-66
2022/01/25 09:16:32;;;;;;;30.92;22.40;;;;;;;;;;5097206;28;20171;-67
2022/01/25 09:18:58;;;;;;;29.40;21.20;;;;;;;;;;5096588;28;20325;-66
2022/01/25 09:21:24;;;;;;;30.13;20.87;;;;;;;;;;5096978;28;20432;-67
2022/01/25 09:23:50;;;;;;;26.33;20.63;;;;;;;;;;5096858;28;20448;-66
2022/01/25 09:26:17;;;;;;;28.30;21.03;;;;;;;;;;5097012;28;20383;-67
2022/01/25 09:28:43;;;;;;;31.33;22.00;;;;;;;;;;5096656;28;20782;-67
2022/01/25 09:31:09;;;;;;;27.93;19.10;;;;;;;;;;5096975;28;20406;-67
2022/01/25 09:33:35;;;;;;;30.53;20.77;;;;;;;;;;5096620;28;20518;-67
2022/01/25 09:36:01;;;;;;;35.37;24.57;;;;;;;;;;5096534;28;20455;-67
2022/01/25 09:38:27;;;;;;;32.80;24.17;;;;;;;;;;5096538;28;20464;-67
2022/01/25 09:40:53;;;;;;;40.80;29.00;;;;;;;;;;5096315;28;20437;-65
2022/01/25 09:43:21;;;;;;;33.40;25.67;;;;;;;;;;5096324;28;20413;-65
2022/01/25 09:45:48;;;;;;;40.03;29.10;;;;;;;;;;5096252;28;20400;-65
2022/01/25 09:48:15;;;;;;;39.00;28.27;;;;;;;;;;5096235;28;20441;-65
2022/01/25 09:50:41;;;;;;;36.90;27.90;;;;;;;;;;5096222;28;20931;-65
2022/01/25 09:53:07;;;;;;;37.67;28.50;;;;;;;;;;5096199;28;20413;-65
2022/01/25 09:55:36;;;;;;;44.70;33.50;;;;;;;;;;5096097;28;20481;-65
2022/01/25 09:58:02;;;;;;;42.67;32.10;;;;;;;;;;5096002;28;20899;-65
2022/01/25 10:00:29;;;;;;;41.10;30.20;;;;;;;;;;5095991;28;20497;-65
2022/01/25 10:03:14;;;;;;;42.37;30.97;;;;;;;;;;5096263;28;20760;-64
2022/01/25 10:05:43;;;;;;;43.33;30.50;;;;;;;;;;5095907;28;20398;-65
2022/01/25 10:08:10;;;;;;;40.10;29.17;;;;;;;;;;5095983;28;20943;-65
2022/01/25 10:10:47;;;;;;;39.37;29.10;;;;;;;;;;5095913;28;20402;-65
2022/01/25 10:13:18;;;;;;;37.53;29.63;;;;;;;;;;5095359;28;20926;-65
2022/01/25 10:15:59;;;;;;;41.63;32.30;;;;;;;;;;5094451;28;20521;-65
2022/01/25 10:18:37;;;;;;;43.77;31.80;;;;;;;;;;5095348;28;20503;-63
2022/01/25 10:21:03;;;;;;;41.23;32.33;;;;;;;;;;5095741;28;20519;-67
2022/01/25 10:23:30;;;;;;;36.97;29.63;;;;;;;;;;5095911;28;20446;-67
2022/01/25 10:25:57;;;;;;;38.00;29.37;;;;;;;;;;5095852;28;20489;-66
2022/01/25 10:28:24;;;;;;;34.73;28.07;;;;;;;;;;5095552;28;20885;-66
2022/01/25 10:30:55;;;;;;;36.80;29.93;;;;;;;;;;5095412;28;20412;-67
2022/01/25 10:33:34;;;;;;;39.67;29.73;;;;;;;;;;5095292;28;20409;-66
2022/01/25 10:36:11;;;;;;;32.97;29.20;;;;;;;;;;5095515;28;20912;-66
2022/01/25 10:38:37;;;;;;;33.10;28.50;;;;;;;;;;5095284;28;20527;-66
2022/01/25 10:41:13;;;;;;;35.47;27.40;;;;;;;;;;5095559;28;20445;-66
2022/01/25 10:43:41;;;;;;;35.53;28.37;;;;;;;;;;5095185;28;20412;-66
2022/01/25 10:46:13;;;;;;;35.63;28.20;;;;;;;;;;5095190;28;20396;-67
2022/01/25 10:48:40;;;;;;;34.37;28.43;;;;;;;;;;5095218;28;20409;-69
2022/01/25 10:51:07;;;;;;;32.23;27.50;;;;;;;;;;5094271;28;20795;-66
2022/01/25 10:53:36;;;;;;;35.27;29.40;;;;;;;;;;5093767;28;20409;-67
2022/01/25 10:56:03;;;;;;;32.03;27.07;;;;;;;;;;5095016;28;20420;-67
2022/01/25 10:58:30;;;;;;;31.90;27.13;;;;;;;;;;5094880;28;20465;-68
2022/01/25 11:00:58;;;;;;;35.50;28.47;;;;;;;;;;5095029;28;20891;-67
2022/01/25 11:03:34;;;;;;;38.53;29.17;;;;;;;;;;5095100;28;20431;-67
2022/01/25 11:06:10;;;;;;;34.33;28.70;;;;;;;;;;5095109;28;20493;-67
2022/01/25 11:08:37;;;;;;;33.40;28.07;;;;;;;;;;5095061;28;20406;-66
2022/01/25 11:11:06;;;;;;;39.80;27.87;;;;;;;;;;5094765;28;20447;-67
2022/01/25 11:16:00;;;;;;;32.57;28.30;;;;;;;;;;5094748;28;20490;-67
2022/01/25 11:18:26;;;;;;;30.23;25.57;;;;;;;;;;5094339;28;20495;-66
2022/01/25 11:20:53;;;;;;;34.13;28.13;;;;;;;;;;5094822;28;20410;-66
2022/01/25 11:23:20;;;;;;;32.77;26.20;;;;;;;;;;5093618;28;20944;-66
2022/01/25 11:25:46;;;;;;;33.77;26.33;;;;;;;;;;5094513;28;20875;-66
2022/01/25 11:28:13;;;;;;;32.17;26.50;;;;;;;;;;5094515;28;20418;-66
2022/01/25 11:30:40;;;;;;;34.10;28.00;;;;;;;;;;5094431;28;20401;-67
2022/01/25 11:33:07;;;;;;;31.93;27.10;;;;;;;;;;5094347;28;20412;-67
2022/01/25 11:35:33;;;;;;;30.10;26.27;;;;;;;;;;5094559;28;20408;-67
2022/01/25 11:37:59;;;;;;;31.47;26.30;;;;;;;;;;5094297;28;20514;-67
2022/01/25 11:40:31;;;;;;;31.67;26.40;;;;;;;;;;5094298;28;20407;-66
2022/01/25 11:43:01;;;;;;;34.53;27.00;;;;;;;;;;5094404;28;20423;-66
2022/01/25 11:45:29;;;;;;;39.60;27.87;;;;;;;;;;5094170;28;20401;-67
2022/01/25 11:47:55;;;;;;;39.93;26.00;;;;;;;;;;5094096;28;20496;-67
2022/01/25 11:50:26;;;;;;;34.60;25.67;;;;;;;;;;5093955;28;20955;-67
2022/01/25 11:52:53;;;;;;;34.27;25.87;;;;;;;;;;5094272;28;20462;-67
2022/01/25 11:55:21;;;;;;;33.27;25.63;;;;;;;;;;5094106;28;20421;-67
2022/01/25 11:57:58;;;;;;;37.60;27.77;;;;;;;;;;5093886;28;20457;-68
2022/01/25 12:00:37;;;;;;;33.60;27.80;;;;;;;;;;5094094;28;20807;-69
2022/01/25 12:03:05;;;;;;;38.17;26.93;;;;;;;;;;5093849;28;20451;-68
2022/01/25 12:05:34;;;;;;;40.43;27.13;;;;;;;;;;5092633;28;20886;-68
2022/01/25 12:08:11;;;;;;;33.63;26.70;;;;;;;;;;5093804;28;20896;-69
2022/01/25 12:10:38;;;;;;;31.73;26.90;;;;;;;;;;5093922;28;20397;-68
2022/01/25 12:13:10;;;;;;;33.80;25.27;;;;;;;;;;5093985;28;20409;-68
2022/01/25 12:15:36;;;;;;;30.93;24.53;;;;;;;;;;5093697;28;20416;-69
2022/01/25 12:18:02;;;;;;;30.20;24.63;;;;;;;;;;5093552;28;20827;-67
2022/01/25 12:20:28;;;;;;;29.17;24.27;;;;;;;;;;5093783;28;20873;-67
2022/01/25 12:23:05;;;;;;;33.27;24.60;;;;;;;;;;5093700;28;20948;-68
2022/01/25 12:25:47;;;;;;;27.20;23.60;;;;;;;;;;5094130;28;20405;-68
2022/01/25 12:28:29;;;;;;;26.37;23.57;;;;;;;;;;5093905;28;20406;-68
2022/01/25 12:30:59;;;;;;;33.90;26.97;;;;;;;;;;5093735;28;20408;-68
2022/01/25 12:33:28;;;;;;;32.90;25.23;;;;;;;;;;5093804;28;20881;-68
2022/01/25 12:35:57;;;;;;;30.90;25.80;;;;;;;;;;5095748;28;20502;-68
2022/01/25 12:38:24;;;;;;;32.80;27.50;;;;;;;;;;5097577;28;20821;-68
2022/01/25 12:40:50;;;;;;;29.57;25.40;;;;;;;;;;5096390;28;20416;-67
2022/01/25 12:43:19;;;;;;;30.43;25.33;;;;;;;;;;5097868;28;20548;-68
2022/01/25 12:45:45;;;;;;;29.90;24.63;;;;;;;;;;5097558;28;20404;-67
2022/01/25 12:48:12;;;;;;;29.87;25.70;;;;;;;;;;5097494;28;20410;-69
2022/01/25 12:50:40;;;;;;;28.47;25.17;;;;;;;;;;5097606;28;20414;-69
2022/01/25 12:53:07;;;;;;;28.97;25.13;;;;;;;;;;5097490;28;20414;-68
2022/01/25 12:55:35;;;;;;;27.80;23.53;;;;;;;;;;5097601;28;20396;-68
2022/01/25 12:58:01;;;;;;;28.60;24.17;;;;;;;;;;5097479;28;20463;-69
2022/01/25 13:00:29;;;;;;;27.47;24.57;;;;;;;;;;5097356;28;20484;-68
2022/01/25 13:03:10;;;;;;;32.20;24.50;;;;;;;;;;5097297;28;20402;-67
2022/01/25 13:05:40;;;;;;;28.80;24.30;;;;;;;;;;5097500;28;20738;-66
2022/01/25 13:08:26;;;;;;;26.57;23.60;;;;;;;;;;5097280;28;20741;-67
2022/01/25 13:10:56;;;;;;;29.83;25.40;;;;;;;;;;5097088;28;20866;-66
2022/01/25 13:13:28;;;;;;;31.63;26.10;;;;;;;;;;5097284;28;20797;-66
2022/01/25 13:15:56;;;;;;;31.70;24.47;;;;;;;;;;5096951;28;20909;-65
2022/01/25 13:18:24;;;;;;;33.33;24.43;;;;;;;;;;5096696;28;20576;-66
2022/01/25 13:20:59;;;;;;;32.30;25.30;;;;;;;;;;5096965;28;20405;-66
2022/01/25 13:23:25;;;;;;;29.10;23.27;;;;;;;;;;5096829;28;20412;-66
2022/01/25 13:28:33;;;;;;;30.80;23.40;;;;;;;;;;5096801;28;20491;-66
2022/01/25 13:30:59;;;;;;;33.07;25.27;;;;;;;;;;5096971;28;20424;-65
2022/01/25 13:33:28;;;;;;;30.47;23.43;;;;;;;;;;5096751;28;20454;-65
2022/01/25 13:35:56;;;;;;;31.63;23.70;;;;;;;;;;5096588;28;20761;-65
2022/01/25 13:38:32;;;;;;;33.67;24.57;;;;;;;;;;5096515;28;20559;-65
2022/01/25 13:41:17;;;;;;;37.40;24.40;;;;;;;;;;5096538;28;20405;-65
2022/01/25 13:46:20;;;;;;;30.73;23.53;;;;;;;;;;5095626;28;20970;-66
2022/01/25 13:48:46;;;;;;;35.63;25.23;;;;;;;;;;5096488;28;20906;-66
2022/01/25 13:51:14;;;;;;;37.60;25.83;;;;;;;;;;5096565;28;20405;-65
2022/01/25 13:53:41;;;;;;;32.17;23.57;;;;;;;;;;5096601;28;20405;-65
2022/01/25 13:56:14;;;;;;;35.20;25.47;;;;;;;;;;5096282;28;20489;-66
2022/01/25 13:58:41;;;;;;;37.70;26.03;;;;;;;;;;5096441;28;20560;-66
2022/01/25 14:01:09;;;;;;;40.27;24.63;;;;;;;;;;5096065;28;20397;-67
2022/01/25 14:03:39;;;;;;;32.70;24.50;;;;;;;;;;5096213;28;20405;-66
2022/01/25 14:06:24;;;;;;;34.30;24.20;;;;;;;;;;5096349;28;20458;-66
2022/01/25 14:08:50;;;;;;;36.00;25.20;;;;;;;;;;5096261;28;20460;-66
2022/01/25 14:11:36;;;;;;;33.27;25.10;;;;;;;;;;5095936;28;20401;-66
2022/01/25 14:22:45;;;;;;;35.60;25.07;;;;;;;;;;5095879;28;20405;-65
2022/01/25 14:25:11;;;;;;;36.10;26.80;;;;;;;;;;5095995;28;20409;-65
2022/01/25 14:27:49;;;;;;;38.10;25.30;;;;;;;;;;5095597;28;20828;-66
2022/01/25 14:30:15;;;;;;;40.63;26.33;;;;;;;;;;5095499;28;20401;-66
2022/01/25 14:32:41;;;;;;;44.57;26.80;;;;;;;;;;5095762;28;20414;-66
2022/01/25 14:35:09;;;;;;;42.80;26.97;;;;;;;;;;5094151;28;20493;-66
2022/01/25 14:37:40;;;;;;;35.97;25.17;;;;;;;;;;5095366;28;20492;-66
2022/01/25 14:40:10;;;;;;;37.93;25.27;;;;;;;;;;5095306;28;20409;-66
2022/01/25 14:42:38;;;;;;;41.80;24.90;;;;;;;;;;5095318;28;20405;-67
2022/01/25 14:45:06;;;;;;;36.27;25.50;;;;;;;;;;5095220;28;20976;-67
2022/01/25 14:47:37;;;;;;;35.80;25.90;;;;;;;;;;5095178;28;20413;-67
2022/01/25 14:50:05;;;;;;;37.47;26.07;;;;;;;;;;5095441;28;20467;-68
2022/01/25 14:52:31;;;;;;;40.83;27.13;;;;;;;;;;5095288;28;20431;-67
2022/01/25 14:54:57;;;;;;;37.93;25.63;;;;;;;;;;5095103;28;20757;-67
2022/01/25 14:57:26;;;;;;;34.77;23.90;;;;;;;;;;5094709;28;20401;-63
2022/01/25 14:59:52;;;;;;;37.60;25.43;;;;;;;;;;5094994;28;20564;-65
2022/01/25 15:02:23;;;;;;;37.10;25.17;;;;;;;;;;5095029;28;20438;-66
2022/01/25 15:04:52;;;;;;;38.63;27.63;;;;;;;;;;5095019;28;20501;-65
2022/01/25 15:07:30;;;;;;;39.80;29.57;;;;;;;;;;5095091;28;20397;-66
2022/01/25 15:10:01;;;;;;;54.90;31.43;;;;;;;;;;5094828;28;20397;-67
2022/01/25 15:12:41;;;;;;;38.83;26.50;;;;;;;;;;5095048;28;20398;-67
2022/01/25 15:15:12;;;;;;;34.70;26.27;;;;;;;;;;5094994;28;20397;-66
2022/01/25 15:17:38;;;;;;;41.97;28.13;;;;;;;;;;5094390;28;20532;-66
2022/01/25 15:20:05;;;;;;;37.47;26.40;;;;;;;;;;5094622;28;20414;-66
2022/01/25 15:22:32;;;;;;;46.50;28.43;;;;;;;;;;5094496;28;20747;-66
2022/01/25 15:24:59;;;;;;;40.47;26.23;;;;;;;;;;5094514;28;20462;-66
2022/01/25 15:27:28;;;;;;;43.50;27.30;;;;;;;;;;5094570;28;20404;-67
2022/01/25 15:29:54;;;;;;;44.13;27.00;;;;;;;;;;5094594;28;20409;-66
2022/01/25 15:32:20;;;;;;;36.70;25.87;;;;;;;;;;5094502;28;20884;-67
2022/01/25 15:34:47;;;;;;;56.43;27.90;;;;;;;;;;5094394;28;20885;-66
2022/01/25 15:37:13;;;;;;;47.27;24.40;;;;;;;;;;5094242;28;20423;-67
2022/01/25 15:39:40;;;;;;;40.43;27.07;;;;;;;;;;5094272;28;20437;-67
2022/01/25 15:42:07;;;;;;;38.87;27.40;;;;;;;;;;5094335;28;20397;-67
2022/01/25 15:44:38;;;;;;;40.17;26.93;;;;;;;;;;5094274;28;20409;-67
2022/01/25 15:47:05;;;;;;;46.67;29.70;;;;;;;;;;5094262;28;20757;-65
2022/01/25 15:49:32;;;;;;;43.97;28.30;;;;;;;;;;5093965;28;20823;-66
2022/01/25 15:51:58;;;;;;;44.20;27.13;;;;;;;;;;5094029;28;20763;-65
2022/01/25 15:54:25;;;;;;;44.80;28.77;;;;;;;;;;5093868;28;20886;-66
2022/01/25 15:56:51;;;;;;;48.03;29.97;;;;;;;;;;5094137;28;20405;-65
2022/01/25 15:59:19;;;;;;;46.40;30.30;;;;;;;;;;5093730;28;20518;-65
2022/01/25 16:01:48;;;;;;;44.17;31.70;;;;;;;;;;5094002;28;20401;-66
2022/01/25 16:04:15;;;;;;;48.03;32.10;;;;;;;;;;5093735;28;20402;-65
2022/01/25 16:06:41;;;;;;;46.57;31.87;;;;;;;;;;5093762;28;20399;-66
2022/01/25 16:09:07;;;;;;;48.40;31.30;;;;;;;;;;5093308;28;20865;-66
2022/01/25 16:11:34;;;;;;;51.53;32.00;;;;;;;;;;5093727;28;20409;-66
2022/01/25 16:14:00;;;;;;;62.70;31.70;;;;;;;;;;5094008;28;20488;-66
2022/01/25 16:16:26;;;;;;;54.60;33.63;;;;;;;;;;5093565;28;20879;-66
2022/01/25 16:18:52;;;;;;;53.80;32.07;;;;;;;;;;5093260;28;20470;-66
2022/01/25 16:21:18;;;;;;;56.50;32.97;;;;;;;;;;5093782;28;20877;-66